sensor_id;sensor_type;location;lat;lon;timestamp;temperature;humidity
25945;SHT31;13742;49.306;8.636;2023-07-28T00:00:54;18.76;90.70
25945;SHT31;13742;49.306;8.636;2023-07-28T00:01:54;18.76;90.61
25945;SHT31;13742;49.306;8.636;2023-07-28T00:02:54;18.76;90.56
25945;SHT31;13742;49.306;8.636;2023-07-28T00:03:54;18.79;90.55
25945;SHT31;13742;49.306;8.636;2023-07-28T00:04:54;18.77;90.56
25945;SHT31;13742;49.306;8.636;2023-07-28T00:05:54;18.77;90.55
25945;SHT31;13742;49.306;8.636;2023-07-28T00:06:54;18.79;90.65
25945;SHT31;13742;49.306;8.636;2023-07-28T00:07:54;18.79;90.56
25945;SHT31;13742;49.306;8.636;2023-07-28T00:08:54;18.79;90.59
25945;SHT31;13742;49.306;8.636;2023-07-28T00:09:54;18.77;90.55
25945;SHT31;13742;49.306;8.636;2023-07-28T00:10:54;18.77;90.48
25945;SHT31;13742;49.306;8.636;2023-07-28T00:11:56;18.77;90.44
25945;SHT31;13742;49.306;8.636;2023-07-28T00:12:54;18.79;90.51
25945;SHT31;13742;49.306;8.636;2023-07-28T00:13:54;18.79;90.73
25945;SHT31;13742;49.306;8.636;2023-07-28T00:14:54;18.77;90.52
25945;SHT31;13742;49.306;8.636;2023-07-28T00:15:54;18.77;90.43
25945;SHT31;13742;49.306;8.636;2023-07-28T00:16:55;18.77;90.33
25945;SHT31;13742;49.306;8.636;2023-07-28T00:17:54;18.76;90.30
25945;SHT31;13742;49.306;8.636;2023-07-28T00:18:54;18.76;90.26
25945;SHT31;13742;49.306;8.636;2023-07-28T00:19:54;18.76;90.26
25945;SHT31;13742;49.306;8.636;2023-07-28T00:20:54;18.76;90.49
25945;SHT31;13742;49.306;8.636;2023-07-28T00:21:56;18.76;90.40
25945;SHT31;13742;49.306;8.636;2023-07-28T00:22:54;18.76;90.32
25945;SHT31;13742;49.306;8.636;2023-07-28T00:23:54;18.75;90.29
25945;SHT31;13742;49.306;8.636;2023-07-28T00:24:54;18.73;90.41
25945;SHT31;13742;49.306;8.636;2023-07-28T00:25:54;18.73;90.33
25945;SHT31;13742;49.306;8.636;2023-07-28T00:26:54;18.76;90.34
25945;SHT31;13742;49.306;8.636;2023-07-28T00:27:55;18.73;90.37
25945;SHT31;13742;49.306;8.636;2023-07-28T00:28:54;18.73;90.41
25945;SHT31;13742;49.306;8.636;2023-07-28T00:29:54;18.75;90.64
25945;SHT31;13742;49.306;8.636;2023-07-28T00:30:54;18.75;90.43
25945;SHT31;13742;49.306;8.636;2023-07-28T00:31:54;18.75;90.54
25945;SHT31;13742;49.306;8.636;2023-07-28T00:32:54;18.76;90.45
25945;SHT31;13742;49.306;8.636;2023-07-28T00:33:54;18.73;90.32
25945;SHT31;13742;49.306;8.636;2023-07-28T00:34:54;18.73;90.33
25945;SHT31;13742;49.306;8.636;2023-07-28T00:35:54;18.75;90.26
25945;SHT31;13742;49.306;8.636;2023-07-28T00:36:54;18.73;90.29
25945;SHT31;13742;49.306;8.636;2023-07-28T00:37:54;18.73;90.29
25945;SHT31;13742;49.306;8.636;2023-07-28T00:38:54;18.73;90.50
25945;SHT31;13742;49.306;8.636;2023-07-28T00:39:54;18.75;91.04
25945;SHT31;13742;49.306;8.636;2023-07-28T00:40:54;18.76;91.46
25945;SHT31;13742;49.306;8.636;2023-07-28T00:41:54;18.76;91.30
25945;SHT31;13742;49.306;8.636;2023-07-28T00:42:54;18.76;91.00
25945;SHT31;13742;49.306;8.636;2023-07-28T00:43:54;18.76;90.93
25945;SHT31;13742;49.306;8.636;2023-07-28T00:44:54;18.75;90.75
25945;SHT31;13742;49.306;8.636;2023-07-28T00:45:54;18.75;90.62
25945;SHT31;13742;49.306;8.636;2023-07-28T00:46:54;18.73;90.54
25945;SHT31;13742;49.306;8.636;2023-07-28T00:47:55;18.73;90.52
25945;SHT31;13742;49.306;8.636;2023-07-28T00:48:54;18.77;90.51
25945;SHT31;13742;49.306;8.636;2023-07-28T00:49:54;18.76;90.62
25945;SHT31;13742;49.306;8.636;2023-07-28T00:50:54;18.76;90.68
25945;SHT31;13742;49.306;8.636;2023-07-28T00:51:54;18.77;90.78
25945;SHT31;13742;49.306;8.636;2023-07-28T00:52:55;18.75;90.70
25945;SHT31;13742;49.306;8.636;2023-07-28T00:53:54;18.75;90.65
25945;SHT31;13742;49.306;8.636;2023-07-28T00:54:54;18.77;90.99
25945;SHT31;13742;49.306;8.636;2023-07-28T00:55:55;18.77;91.13
25945;SHT31;13742;49.306;8.636;2023-07-28T00:56:54;18.80;91.45
25945;SHT31;13742;49.306;8.636;2023-07-28T00:57:54;18.80;91.71
25945;SHT31;13742;49.306;8.636;2023-07-28T00:58:54;18.77;91.75
25945;SHT31;13742;49.306;8.636;2023-07-28T00:59:54;18.77;91.59
25945;SHT31;13742;49.306;8.636;2023-07-28T01:00:54;18.79;91.44
25945;SHT31;13742;49.306;8.636;2023-07-28T01:01:54;18.80;91.24
25945;SHT31;13742;49.306;8.636;2023-07-28T01:02:54;18.79;91.35
25945;SHT31;13742;49.306;8.636;2023-07-28T01:03:54;18.76;91.90
25945;SHT31;13742;49.306;8.636;2023-07-28T01:04:54;18.77;91.66
25945;SHT31;13742;49.306;8.636;2023-07-28T01:07:03;18.76;91.15
25945;SHT31;13742;49.306;8.636;2023-07-28T01:08:02;18.75;91.04
25945;SHT31;13742;49.306;8.636;2023-07-28T01:09:02;18.76;91.03
25945;SHT31;13742;49.306;8.636;2023-07-28T01:10:02;18.77;91.18
25945;SHT31;13742;49.306;8.636;2023-07-28T01:10:54;18.76;91.25
25945;SHT31;13742;49.306;8.636;2023-07-28T01:11:58;18.76;91.19
25945;SHT31;13742;49.306;8.636;2023-07-28T01:12:54;18.73;91.17
25945;SHT31;13742;49.306;8.636;2023-07-28T01:13:54;18.76;91.54
25945;SHT31;13742;49.306;8.636;2023-07-28T01:14:54;18.77;92.11
25945;SHT31;13742;49.306;8.636;2023-07-28T01:15:54;18.77;92.37
25945;SHT31;13742;49.306;8.636;2023-07-28T01:16:54;18.76;92.02
25945;SHT31;13742;49.306;8.636;2023-07-28T01:17:54;18.79;91.69
25945;SHT31;13742;49.306;8.636;2023-07-28T01:18:54;18.77;91.53
25945;SHT31;13742;49.306;8.636;2023-07-28T01:19:54;18.77;91.60
25945;SHT31;13742;49.306;8.636;2023-07-28T01:20:57;18.79;92.02
25945;SHT31;13742;49.306;8.636;2023-07-28T01:24:06;18.77;91.69
25945;SHT31;13742;49.306;8.636;2023-07-28T01:25:06;18.77;91.53
25945;SHT31;13742;49.306;8.636;2023-07-28T01:26:54;18.76;91.35
25945;SHT31;13742;49.306;8.636;2023-07-28T01:27:55;18.75;91.28
25945;SHT31;13742;49.306;8.636;2023-07-28T01:28:54;18.73;91.22
25945;SHT31;13742;49.306;8.636;2023-07-28T01:29:54;18.72;91.15
25945;SHT31;13742;49.306;8.636;2023-07-28T01:30:54;18.73;91.44
25945;SHT31;13742;49.306;8.636;2023-07-28T01:31:54;18.75;91.97
25945;SHT31;13742;49.306;8.636;2023-07-28T01:32:55;18.75;91.60
25945;SHT31;13742;49.306;8.636;2023-07-28T01:33:54;18.73;91.51
25945;SHT31;13742;49.306;8.636;2023-07-28T01:34:54;18.73;91.38
25945;SHT31;13742;49.306;8.636;2023-07-28T01:35:54;18.72;91.39
25945;SHT31;13742;49.306;8.636;2023-07-28T01:36:54;18.73;91.30
25945;SHT31;13742;49.306;8.636;2023-07-28T01:37:54;18.73;91.25
25945;SHT31;13742;49.306;8.636;2023-07-28T01:38:54;18.75;91.47
25945;SHT31;13742;49.306;8.636;2023-07-28T01:39:54;18.73;91.34
25945;SHT31;13742;49.306;8.636;2023-07-28T01:40:54;18.75;91.51
25945;SHT31;13742;49.306;8.636;2023-07-28T01:41:54;18.76;91.40
25945;SHT31;13742;49.306;8.636;2023-07-28T01:42:54;18.75;91.34
25945;SHT31;13742;49.306;8.636;2023-07-28T01:43:55;18.75;91.26
25945;SHT31;13742;49.306;8.636;2023-07-28T01:44:54;18.77;91.33
25945;SHT31;13742;49.306;8.636;2023-07-28T01:45:54;18.76;91.30
25945;SHT31;13742;49.306;8.636;2023-07-28T01:46:54;18.76;91.27
25945;SHT31;13742;49.306;8.636;2023-07-28T01:47:54;18.77;91.20
25945;SHT31;13742;49.306;8.636;2023-07-28T01:48:54;18.75;91.16
25945;SHT31;13742;49.306;8.636;2023-07-28T01:49:54;18.76;91.09
25945;SHT31;13742;49.306;8.636;2023-07-28T01:50:54;18.75;91.26
25945;SHT31;13742;49.306;8.636;2023-07-28T01:51:54;18.79;91.72
25945;SHT31;13742;49.306;8.636;2023-07-28T01:52:54;18.77;91.69
25945;SHT31;13742;49.306;8.636;2023-07-28T01:53:54;18.77;91.78
25945;SHT31;13742;49.306;8.636;2023-07-28T01:54:54;18.76;91.59
25945;SHT31;13742;49.306;8.636;2023-07-28T01:55:54;18.79;91.87
25945;SHT31;13742;49.306;8.636;2023-07-28T01:56:54;18.77;92.04
25945;SHT31;13742;49.306;8.636;2023-07-28T01:57:56;18.77;91.64
25945;SHT31;13742;49.306;8.636;2023-07-28T01:58:54;18.77;91.45
25945;SHT31;13742;49.306;8.636;2023-07-28T01:59:54;18.79;91.55
25945;SHT31;13742;49.306;8.636;2023-07-28T02:00:54;18.80;91.78
25945;SHT31;13742;49.306;8.636;2023-07-28T02:01:54;18.77;92.34
25945;SHT31;13742;49.306;8.636;2023-07-28T02:02:54;18.80;92.37
25945;SHT31;13742;49.306;8.636;2023-07-28T02:03:54;18.79;92.47
25945;SHT31;13742;49.306;8.636;2023-07-28T02:04:54;18.80;92.30
25945;SHT31;13742;49.306;8.636;2023-07-28T02:05:54;18.79;92.13
25945;SHT31;13742;49.306;8.636;2023-07-28T02:06:54;18.77;92.44
25945;SHT31;13742;49.306;8.636;2023-07-28T02:07:54;18.76;92.12
25945;SHT31;13742;49.306;8.636;2023-07-28T02:08:54;18.79;92.30
25945;SHT31;13742;49.306;8.636;2023-07-28T02:09:54;18.80;92.62
25945;SHT31;13742;49.306;8.636;2023-07-28T02:10:54;18.79;92.45
25945;SHT31;13742;49.306;8.636;2023-07-28T02:11:54;18.77;92.15
25945;SHT31;13742;49.306;8.636;2023-07-28T02:12:54;18.79;91.91
25945;SHT31;13742;49.306;8.636;2023-07-28T02:13:54;18.79;91.83
25945;SHT31;13742;49.306;8.636;2023-07-28T02:14:54;18.79;91.72
25945;SHT31;13742;49.306;8.636;2023-07-28T02:15:54;18.79;91.65
25945;SHT31;13742;49.306;8.636;2023-07-28T02:16:54;18.77;91.64
25945;SHT31;13742;49.306;8.636;2023-07-28T02:17:54;18.77;91.74
25945;SHT31;13742;49.306;8.636;2023-07-28T02:18:54;18.79;91.85
25945;SHT31;13742;49.306;8.636;2023-07-28T02:19:54;18.77;92.24
25945;SHT31;13742;49.306;8.636;2023-07-28T02:20:54;18.82;92.81
25945;SHT31;13742;49.306;8.636;2023-07-28T02:21:54;18.79;92.44
25945;SHT31;13742;49.306;8.636;2023-07-28T02:22:54;18.80;92.29
25945;SHT31;13742;49.306;8.636;2023-07-28T02:23:54;18.79;92.18
25945;SHT31;13742;49.306;8.636;2023-07-28T02:24:54;18.82;92.28
25945;SHT31;13742;49.306;8.636;2023-07-28T02:25:54;18.79;92.03
25945;SHT31;13742;49.306;8.636;2023-07-28T02:26:54;18.77;92.30
25945;SHT31;13742;49.306;8.636;2023-07-28T02:27:54;18.77;92.22
25945;SHT31;13742;49.306;8.636;2023-07-28T02:28:54;18.79;92.18
25945;SHT31;13742;49.306;8.636;2023-07-28T02:29:54;18.79;92.01
25945;SHT31;13742;49.306;8.636;2023-07-28T02:30:54;18.76;92.09
25945;SHT31;13742;49.306;8.636;2023-07-28T02:31:54;18.80;92.26
25945;SHT31;13742;49.306;8.636;2023-07-28T02:32:54;18.79;92.14
25945;SHT31;13742;49.306;8.636;2023-07-28T02:33:55;18.80;92.76
25945;SHT31;13742;49.306;8.636;2023-07-28T02:34:54;18.79;92.71
25945;SHT31;13742;49.306;8.636;2023-07-28T02:35:54;18.79;92.64
25945;SHT31;13742;49.306;8.636;2023-07-28T02:36:54;18.75;92.41
25945;SHT31;13742;49.306;8.636;2023-07-28T02:37:54;18.72;92.13
25945;SHT31;13742;49.306;8.636;2023-07-28T02:38:54;18.75;92.02
25945;SHT31;13742;49.306;8.636;2023-07-28T02:39:54;18.73;91.87
25945;SHT31;13742;49.306;8.636;2023-07-28T02:40:54;18.73;91.72
25945;SHT31;13742;49.306;8.636;2023-07-28T02:41:54;18.70;91.62
25945;SHT31;13742;49.306;8.636;2023-07-28T02:42:54;18.72;91.60
25945;SHT31;13742;49.306;8.636;2023-07-28T02:43:54;18.70;91.54
25945;SHT31;13742;49.306;8.636;2023-07-28T02:44:54;18.70;91.55
25945;SHT31;13742;49.306;8.636;2023-07-28T02:45:55;18.69;91.54
25945;SHT31;13742;49.306;8.636;2023-07-28T02:46:54;18.70;91.47
25945;SHT31;13742;49.306;8.636;2023-07-28T02:47:54;18.69;91.49
25945;SHT31;13742;49.306;8.636;2023-07-28T02:48:54;18.70;91.37
25945;SHT31;13742;49.306;8.636;2023-07-28T02:49:54;18.70;91.39
25945;SHT31;13742;49.306;8.636;2023-07-28T02:50:54;18.69;91.38
25945;SHT31;13742;49.306;8.636;2023-07-28T02:51:54;18.70;91.33
25945;SHT31;13742;49.306;8.636;2023-07-28T02:52:54;18.68;91.29
25945;SHT31;13742;49.306;8.636;2023-07-28T02:53:54;18.69;91.31
25945;SHT31;13742;49.306;8.636;2023-07-28T02:54:55;18.70;91.34
25945;SHT31;13742;49.306;8.636;2023-07-28T02:55:54;18.70;91.24
25945;SHT31;13742;49.306;8.636;2023-07-28T02:56:54;18.68;91.23
25945;SHT31;13742;49.306;8.636;2023-07-28T02:57:54;18.69;91.24
25945;SHT31;13742;49.306;8.636;2023-07-28T02:58:54;18.70;91.22
25945;SHT31;13742;49.306;8.636;2023-07-28T02:59:54;18.69;91.20
25945;SHT31;13742;49.306;8.636;2023-07-28T03:00:54;18.69;91.19
25945;SHT31;13742;49.306;8.636;2023-07-28T03:01:54;18.69;91.19
25945;SHT31;13742;49.306;8.636;2023-07-28T03:02:54;18.69;91.14
25945;SHT31;13742;49.306;8.636;2023-07-28T03:03:54;18.69;91.15
25945;SHT31;13742;49.306;8.636;2023-07-28T03:04:54;18.69;91.16
25945;SHT31;13742;49.306;8.636;2023-07-28T03:05:54;18.70;91.14
25945;SHT31;13742;49.306;8.636;2023-07-28T03:06:54;18.70;91.12
25945;SHT31;13742;49.306;8.636;2023-07-28T03:07:54;18.68;91.06
25945;SHT31;13742;49.306;8.636;2023-07-28T03:08:54;18.70;91.25
25945;SHT31;13742;49.306;8.636;2023-07-28T03:09:54;18.68;91.11
25945;SHT31;13742;49.306;8.636;2023-07-28T03:10:58;18.69;91.10
25945;SHT31;13742;49.306;8.636;2023-07-28T03:11:54;18.69;91.07
25945;SHT31;13742;49.306;8.636;2023-07-28T03:12:54;18.68;91.20
25945;SHT31;13742;49.306;8.636;2023-07-28T03:13:54;18.68;91.13
25945;SHT31;13742;49.306;8.636;2023-07-28T03:14:54;18.68;91.13
25945;SHT31;13742;49.306;8.636;2023-07-28T03:15:54;18.70;91.04
25945;SHT31;13742;49.306;8.636;2023-07-28T03:16:54;18.69;91.02
25945;SHT31;13742;49.306;8.636;2023-07-28T03:17:54;18.66;91.00
25945;SHT31;13742;49.306;8.636;2023-07-28T03:18:54;18.69;91.01
25945;SHT31;13742;49.306;8.636;2023-07-28T03:19:54;18.72;90.99
25945;SHT31;13742;49.306;8.636;2023-07-28T03:20:54;18.69;90.94
25945;SHT31;13742;49.306;8.636;2023-07-28T03:21:54;18.69;91.16
25945;SHT31;13742;49.306;8.636;2023-07-28T03:22:54;18.69;91.05
25945;SHT31;13742;49.306;8.636;2023-07-28T03:23:54;18.70;90.96
25945;SHT31;13742;49.306;8.636;2023-07-28T03:24:54;18.70;90.93
25945;SHT31;13742;49.306;8.636;2023-07-28T03:25:54;18.69;90.91
25945;SHT31;13742;49.306;8.636;2023-07-28T03:26:54;18.69;90.85
25945;SHT31;13742;49.306;8.636;2023-07-28T03:27:54;18.68;90.90
25945;SHT31;13742;49.306;8.636;2023-07-28T03:28:54;18.69;90.81
25945;SHT31;13742;49.306;8.636;2023-07-28T03:29:54;18.70;90.81
25945;SHT31;13742;49.306;8.636;2023-07-28T03:30:54;18.69;90.80
25945;SHT31;13742;49.306;8.636;2023-07-28T03:31:54;18.69;90.80
25945;SHT31;13742;49.306;8.636;2023-07-28T03:32:54;18.68;90.72
25945;SHT31;13742;49.306;8.636;2023-07-28T03:33:54;18.68;90.71
25945;SHT31;13742;49.306;8.636;2023-07-28T03:34:54;18.66;90.71
25945;SHT31;13742;49.306;8.636;2023-07-28T03:35:54;18.68;90.83
25945;SHT31;13742;49.306;8.636;2023-07-28T03:36:54;18.68;91.35
25945;SHT31;13742;49.306;8.636;2023-07-28T03:37:54;18.68;91.26
25945;SHT31;13742;49.306;8.636;2023-07-28T03:38:54;18.68;91.82
25945;SHT31;13742;49.306;8.636;2023-07-28T03:39:54;18.70;91.91
25945;SHT31;13742;49.306;8.636;2023-07-28T03:40:54;18.69;91.80
25945;SHT31;13742;49.306;8.636;2023-07-28T03:41:54;18.69;91.42
25945;SHT31;13742;49.306;8.636;2023-07-28T03:42:54;18.69;91.28
25945;SHT31;13742;49.306;8.636;2023-07-28T03:43:54;18.69;91.20
25945;SHT31;13742;49.306;8.636;2023-07-28T03:44:54;18.69;91.16
25945;SHT31;13742;49.306;8.636;2023-07-28T03:45:54;18.68;91.09
25945;SHT31;13742;49.306;8.636;2023-07-28T03:46:54;18.69;91.14
25945;SHT31;13742;49.306;8.636;2023-07-28T03:47:54;18.69;91.26
25945;SHT31;13742;49.306;8.636;2023-07-28T03:48:54;18.68;91.15
25945;SHT31;13742;49.306;8.636;2023-07-28T03:49:54;18.69;91.10
25945;SHT31;13742;49.306;8.636;2023-07-28T03:50:54;18.69;91.10
25945;SHT31;13742;49.306;8.636;2023-07-28T03:51:54;18.69;91.06
25945;SHT31;13742;49.306;8.636;2023-07-28T03:52:54;18.68;91.07
25945;SHT31;13742;49.306;8.636;2023-07-28T03:53:54;18.69;91.18
25945;SHT31;13742;49.306;8.636;2023-07-28T03:54:54;18.69;91.12
25945;SHT31;13742;49.306;8.636;2023-07-28T03:55:57;18.66;91.09
25945;SHT31;13742;49.306;8.636;2023-07-28T03:56:54;18.66;91.07
25945;SHT31;13742;49.306;8.636;2023-07-28T03:57:54;18.66;91.04
25945;SHT31;13742;49.306;8.636;2023-07-28T03:58:54;18.63;90.96
25945;SHT31;13742;49.306;8.636;2023-07-28T03:59:54;18.68;91.07
25945;SHT31;13742;49.306;8.636;2023-07-28T04:00:54;18.66;91.07
25945;SHT31;13742;49.306;8.636;2023-07-28T04:01:54;18.66;91.07
25945;SHT31;13742;49.306;8.636;2023-07-28T04:02:54;18.65;91.14
25945;SHT31;13742;49.306;8.636;2023-07-28T04:03:54;18.66;91.19
25945;SHT31;13742;49.306;8.636;2023-07-28T04:04:55;18.66;91.28
25945;SHT31;13742;49.306;8.636;2023-07-28T04:05:54;18.66;91.17
25945;SHT31;13742;49.306;8.636;2023-07-28T04:06:54;18.66;91.12
25945;SHT31;13742;49.306;8.636;2023-07-28T04:07:54;18.68;91.13
25945;SHT31;13742;49.306;8.636;2023-07-28T04:08:54;18.68;91.14
25945;SHT31;13742;49.306;8.636;2023-07-28T04:09:54;18.66;91.20
25945;SHT31;13742;49.306;8.636;2023-07-28T04:10:54;18.63;91.16
25945;SHT31;13742;49.306;8.636;2023-07-28T04:11:54;18.63;91.28
25945;SHT31;13742;49.306;8.636;2023-07-28T04:12:54;18.65;91.26
25945;SHT31;13742;49.306;8.636;2023-07-28T04:13:54;18.60;91.13
25945;SHT31;13742;49.306;8.636;2023-07-28T04:14:54;18.63;91.39
25945;SHT31;13742;49.306;8.636;2023-07-28T04:15:54;18.62;91.40
25945;SHT31;13742;49.306;8.636;2023-07-28T04:16:54;18.62;91.33
25945;SHT31;13742;49.306;8.636;2023-07-28T04:17:54;18.60;91.56
25945;SHT31;13742;49.306;8.636;2023-07-28T04:18:54;18.63;91.53
25945;SHT31;13742;49.306;8.636;2023-07-28T04:19:54;18.62;91.30
25945;SHT31;13742;49.306;8.636;2023-07-28T04:20:54;18.60;91.31
25945;SHT31;13742;49.306;8.636;2023-07-28T04:21:54;18.62;91.30
25945;SHT31;13742;49.306;8.636;2023-07-28T04:22:54;18.60;91.35
25945;SHT31;13742;49.306;8.636;2023-07-28T04:23:54;18.62;91.38
25945;SHT31;13742;49.306;8.636;2023-07-28T04:24:54;18.62;91.44
25945;SHT31;13742;49.306;8.636;2023-07-28T04:25:54;18.59;91.38
25945;SHT31;13742;49.306;8.636;2023-07-28T04:26:54;18.60;91.36
25945;SHT31;13742;49.306;8.636;2023-07-28T04:27:54;18.60;91.22
25945;SHT31;13742;49.306;8.636;2023-07-28T04:28:54;18.62;91.52
25945;SHT31;13742;49.306;8.636;2023-07-28T04:29:54;18.60;91.44
25945;SHT31;13742;49.306;8.636;2023-07-28T04:30:54;18.59;91.38
25945;SHT31;13742;49.306;8.636;2023-07-28T04:31:54;18.58;91.38
25945;SHT31;13742;49.306;8.636;2023-07-28T04:32:54;18.59;91.67
25945;SHT31;13742;49.306;8.636;2023-07-28T04:33:54;18.60;91.45
25945;SHT31;13742;49.306;8.636;2023-07-28T04:34:54;18.60;91.51
25945;SHT31;13742;49.306;8.636;2023-07-28T04:35:54;18.59;91.42
25945;SHT31;13742;49.306;8.636;2023-07-28T04:36:54;18.58;91.33
25945;SHT31;13742;49.306;8.636;2023-07-28T04:37:54;18.58;91.48
25945;SHT31;13742;49.306;8.636;2023-07-28T04:38:54;18.55;91.49
25945;SHT31;13742;49.306;8.636;2023-07-28T04:39:54;18.56;91.38
25945;SHT31;13742;49.306;8.636;2023-07-28T04:40:54;18.56;91.39
25945;SHT31;13742;49.306;8.636;2023-07-28T04:41:54;18.56;91.44
25945;SHT31;13742;49.306;8.636;2023-07-28T04:42:54;18.58;91.34
25945;SHT31;13742;49.306;8.636;2023-07-28T04:43:54;18.56;91.41
25945;SHT31;13742;49.306;8.636;2023-07-28T04:44:54;18.55;91.41
25945;SHT31;13742;49.306;8.636;2023-07-28T04:45:54;18.54;91.56
25945;SHT31;13742;49.306;8.636;2023-07-28T04:46:54;18.51;91.52
25945;SHT31;13742;49.306;8.636;2023-07-28T04:47:54;18.52;91.48
25945;SHT31;13742;49.306;8.636;2023-07-28T04:48:54;18.52;91.74
25945;SHT31;13742;49.306;8.636;2023-07-28T04:49:54;18.52;91.60
25945;SHT31;13742;49.306;8.636;2023-07-28T04:50:54;18.51;91.59
25945;SHT31;13742;49.306;8.636;2023-07-28T04:51:54;18.51;91.65
25945;SHT31;13742;49.306;8.636;2023-07-28T04:52:54;18.49;91.64
25945;SHT31;13742;49.306;8.636;2023-07-28T04:53:54;18.51;91.69
25945;SHT31;13742;49.306;8.636;2023-07-28T04:54:54;18.49;91.55
25945;SHT31;13742;49.306;8.636;2023-07-28T04:55:54;18.49;91.71
25945;SHT31;13742;49.306;8.636;2023-07-28T04:56:54;18.48;91.76
25945;SHT31;13742;49.306;8.636;2023-07-28T04:57:55;18.44;91.63
25945;SHT31;13742;49.306;8.636;2023-07-28T04:58:54;18.45;91.79
25945;SHT31;13742;49.306;8.636;2023-07-28T04:59:54;18.46;91.82
25945;SHT31;13742;49.306;8.636;2023-07-28T05:00:54;18.48;91.92
25945;SHT31;13742;49.306;8.636;2023-07-28T05:01:54;18.48;92.16
25945;SHT31;13742;49.306;8.636;2023-07-28T05:02:54;18.49;92.21
25945;SHT31;13742;49.306;8.636;2023-07-28T05:03:54;18.49;92.32
25945;SHT31;13742;49.306;8.636;2023-07-28T05:04:54;18.49;92.57
25945;SHT31;13742;49.306;8.636;2023-07-28T05:05:54;18.48;92.30
25945;SHT31;13742;49.306;8.636;2023-07-28T05:06:54;18.48;92.04
25945;SHT31;13742;49.306;8.636;2023-07-28T05:07:54;18.46;92.09
25945;SHT31;13742;49.306;8.636;2023-07-28T05:08:54;18.48;92.34
25945;SHT31;13742;49.306;8.636;2023-07-28T05:09:54;18.46;92.25
25945;SHT31;13742;49.306;8.636;2023-07-28T05:10:56;18.45;92.14
25945;SHT31;13742;49.306;8.636;2023-07-28T05:11:54;18.49;92.23
25945;SHT31;13742;49.306;8.636;2023-07-28T05:12:54;18.46;92.19
25945;SHT31;13742;49.306;8.636;2023-07-28T05:13:54;18.42;92.58
25945;SHT31;13742;49.306;8.636;2023-07-28T05:14:54;18.42;92.37
25945;SHT31;13742;49.306;8.636;2023-07-28T05:15:54;18.45;92.31
25945;SHT31;13742;49.306;8.636;2023-07-28T05:16:54;18.41;92.64
25945;SHT31;13742;49.306;8.636;2023-07-28T05:17:54;18.44;92.35
25945;SHT31;13742;49.306;8.636;2023-07-28T05:18:54;18.44;92.36
25945;SHT31;13742;49.306;8.636;2023-07-28T05:19:54;18.45;92.23
25945;SHT31;13742;49.306;8.636;2023-07-28T05:20:54;18.44;92.51
25945;SHT31;13742;49.306;8.636;2023-07-28T05:21:54;18.42;92.91
25945;SHT31;13742;49.306;8.636;2023-07-28T05:22:54;18.41;92.93
25945;SHT31;13742;49.306;8.636;2023-07-28T05:23:54;18.41;92.72
25945;SHT31;13742;49.306;8.636;2023-07-28T05:24:54;18.38;92.91
25945;SHT31;13742;49.306;8.636;2023-07-28T05:25:54;18.39;93.04
25945;SHT31;13742;49.306;8.636;2023-07-28T05:26:54;18.38;92.91
25945;SHT31;13742;49.306;8.636;2023-07-28T05:27:54;18.39;92.74
25945;SHT31;13742;49.306;8.636;2023-07-28T05:28:54;18.39;92.55
25945;SHT31;13742;49.306;8.636;2023-07-28T05:29:54;18.41;93.04
25945;SHT31;13742;49.306;8.636;2023-07-28T05:30:54;18.39;93.09
25945;SHT31;13742;49.306;8.636;2023-07-28T05:31:54;18.38;93.14
25945;SHT31;13742;49.306;8.636;2023-07-28T05:32:54;18.39;92.91
25945;SHT31;13742;49.306;8.636;2023-07-28T05:33:54;18.44;92.91
25945;SHT31;13742;49.306;8.636;2023-07-28T05:34:54;18.42;92.86
25945;SHT31;13742;49.306;8.636;2023-07-28T05:35:59;18.42;92.90
25945;SHT31;13742;49.306;8.636;2023-07-28T05:36:54;18.44;93.16
25945;SHT31;13742;49.306;8.636;2023-07-28T05:37:54;18.42;93.05
25945;SHT31;13742;49.306;8.636;2023-07-28T05:38:57;18.41;92.95
25945;SHT31;13742;49.306;8.636;2023-07-28T05:39:54;18.41;92.94
25945;SHT31;13742;49.306;8.636;2023-07-28T05:41:00;18.42;92.78
25945;SHT31;13742;49.306;8.636;2023-07-28T05:41:54;18.44;92.71
25945;SHT31;13742;49.306;8.636;2023-07-28T05:42:54;18.42;93.14
25945;SHT31;13742;49.306;8.636;2023-07-28T05:43:54;18.44;92.93
25945;SHT31;13742;49.306;8.636;2023-07-28T05:44:55;18.44;92.77
25945;SHT31;13742;49.306;8.636;2023-07-28T05:45:53;18.46;92.77
25945;SHT31;13742;49.306;8.636;2023-07-28T05:46:54;18.44;92.74
25945;SHT31;13742;49.306;8.636;2023-07-28T05:47:53;18.44;92.82
25945;SHT31;13742;49.306;8.636;2023-07-28T05:48:54;18.44;92.81
25945;SHT31;13742;49.306;8.636;2023-07-28T05:49:53;18.44;92.64
25945;SHT31;13742;49.306;8.636;2023-07-28T05:50:54;18.44;92.57
25945;SHT31;13742;49.306;8.636;2023-07-28T05:51:54;18.45;92.53
25945;SHT31;13742;49.306;8.636;2023-07-28T05:52:54;18.46;92.57
25945;SHT31;13742;49.306;8.636;2023-07-28T05:53:54;18.46;92.72
25945;SHT31;13742;49.306;8.636;2023-07-28T05:54:54;18.48;92.61
25945;SHT31;13742;49.306;8.636;2023-07-28T05:55:54;18.48;92.57
25945;SHT31;13742;49.306;8.636;2023-07-28T05:56:53;18.49;92.69
25945;SHT31;13742;49.306;8.636;2023-07-28T05:57:53;18.48;92.57
25945;SHT31;13742;49.306;8.636;2023-07-28T05:58:55;18.46;92.68
25945;SHT31;13742;49.306;8.636;2023-07-28T05:59:54;18.46;92.63
25945;SHT31;13742;49.306;8.636;2023-07-28T06:00:53;18.49;92.49
25945;SHT31;13742;49.306;8.636;2023-07-28T06:01:53;18.48;92.48
25945;SHT31;13742;49.306;8.636;2023-07-28T06:02:53;18.45;92.37
25945;SHT31;13742;49.306;8.636;2023-07-28T06:03:59;18.45;92.41
25945;SHT31;13742;49.306;8.636;2023-07-28T06:04:54;18.46;92.77
25945;SHT31;13742;49.306;8.636;2023-07-28T06:05:54;18.49;92.57
25945;SHT31;13742;49.306;8.636;2023-07-28T06:06:53;18.51;92.50
25945;SHT31;13742;49.306;8.636;2023-07-28T06:07:53;18.49;92.49
25945;SHT31;13742;49.306;8.636;2023-07-28T06:08:54;18.48;92.46
25945;SHT31;13742;49.306;8.636;2023-07-28T06:09:53;18.51;92.58
25945;SHT31;13742;49.306;8.636;2023-07-28T06:10:54;18.49;92.43
25945;SHT31;13742;49.306;8.636;2023-07-28T06:11:53;18.52;92.39
25945;SHT31;13742;49.306;8.636;2023-07-28T06:12:54;18.49;92.37
25945;SHT31;13742;49.306;8.636;2023-07-28T06:13:53;18.52;92.40
25945;SHT31;13742;49.306;8.636;2023-07-28T06:14:54;18.49;92.43
25945;SHT31;13742;49.306;8.636;2023-07-28T06:15:55;18.51;93.06
25945;SHT31;13742;49.306;8.636;2023-07-28T06:16:54;18.51;93.13
25945;SHT31;13742;49.306;8.636;2023-07-28T06:17:53;18.52;92.90
25945;SHT31;13742;49.306;8.636;2023-07-28T06:18:54;18.54;92.84
25945;SHT31;13742;49.306;8.636;2023-07-28T06:19:54;18.54;93.01
25945;SHT31;13742;49.306;8.636;2023-07-28T06:20:54;18.52;93.28
25945;SHT31;13742;49.306;8.636;2023-07-28T06:21:54;18.49;93.03
25945;SHT31;13742;49.306;8.636;2023-07-28T06:22:53;18.52;92.90